Enderby Island, New Zealand
Current Conditions -  °F | °C
As of 10:30 AM on Tuesday 27 Jan 2015 (Local Time) from NZCH Reporting Station
Overcast Overcast  
Wind Chill: 63°   Ceiling: 1200
Heat Index: 63°   Visibility: 6mi
Dew Point: 59°   Wind: 10mph
Humidity: 88%   Direction: 230°SW
Pressure: 29.94"   Gusts: NA
Location:  50.5°S, 166.29°E
Report Text: NZCH 262230Z AUTO 23009KT 9999 OVC012/// 17/15 Q1014 NOSIG
Loading
Personal Weather Stations






























Interactive Weather Map New forecast layout! Learn more

10-Day Weather Forecast

Advertisements
Track Severe Weather on mobile